sensor_id;sensor_type;location;lat;lon;timestamp;P1;durP1;ratioP1;P2;durP2;ratioP2
17528;SDS011;8882;53.192;8.184;2022-12-18T08:05:09;18.90;;;11.83;;
17528;SDS011;8882;53.192;8.184;2022-12-18T08:07:34;21.80;;;12.50;;
17528;SDS011;8882;53.192;8.184;2022-12-18T08:10:00;19.40;;;12.13;;
17528;SDS011;8882;53.192;8.184;2022-12-18T08:12:25;18.60;;;11.23;;
17528;SDS011;8882;53.192;8.184;2022-12-18T08:14:51;18.53;;;10.50;;
17528;SDS011;8882;53.192;8.184;2022-12-18T08:17:16;15.30;;;9.67;;
17528;SDS011;8882;53.192;8.184;2022-12-18T08:19:42;13.53;;;8.70;;
17528;SDS011;8882;53.192;8.184;2022-12-18T08:22:07;13.57;;;8.90;;
17528;SDS011;8882;53.192;8.184;2022-12-18T08:24:33;13.20;;;9.03;;
17528;SDS011;8882;53.192;8.184;2022-12-18T08:26:58;13.67;;;8.80;;
17528;SDS011;8882;53.192;8.184;2022-12-18T08:29:24;13.90;;;8.63;;
17528;SDS011;8882;53.192;8.184;2022-12-18T08:31:49;16.63;;;8.07;;
17528;SDS011;8882;53.192;8.184;2022-12-18T08:34:15;12.93;;;8.30;;
17528;SDS011;8882;53.192;8.184;2022-12-18T08:36:40;16.70;;;8.97;;
17528;SDS011;8882;53.192;8.184;2022-12-18T08:39:06;16.47;;;9.00;;
17528;SDS011;8882;53.192;8.184;2022-12-18T08:41:31;14.13;;;9.13;;
17528;SDS011;8882;53.192;8.184;2022-12-18T08:43:57;14.43;;;8.83;;
17528;SDS011;8882;53.192;8.184;2022-12-18T08:46:42;13.53;;;9.03;;
17528;SDS011;8882;53.192;8.184;2022-12-18T08:49:09;12.47;;;8.57;;
17528;SDS011;8882;53.192;8.184;2022-12-18T08:51:35;14.27;;;8.33;;
17528;SDS011;8882;53.192;8.184;2022-12-18T08:54:02;12.23;;;8.00;;
17528;SDS011;8882;53.192;8.184;2022-12-18T08:56:28;13.80;;;8.13;;
17528;SDS011;8882;53.192;8.184;2022-12-18T08:58:55;14.53;;;9.20;;
17528;SDS011;8882;53.192;8.184;2022-12-18T09:01:21;13.97;;;9.20;;
17528;SDS011;8882;53.192;8.184;2022-12-18T09:03:48;15.13;;;8.30;;
17528;SDS011;8882;53.192;8.184;2022-12-18T09:06:15;16.40;;;8.37;;
17528;SDS011;8882;53.192;8.184;2022-12-18T09:08:45;13.73;;;8.77;;
17528;SDS011;8882;53.192;8.184;2022-12-18T09:11:15;16.77;;;8.30;;
17528;SDS011;8882;53.192;8.184;2022-12-18T09:13:45;13.97;;;8.73;;
17528;SDS011;8882;53.192;8.184;2022-12-18T09:16:11;19.13;;;9.00;;
17528;SDS011;8882;53.192;8.184;2022-12-18T09:18:36;16.57;;;8.90;;
17528;SDS011;8882;53.192;8.184;2022-12-18T09:21:09;16.37;;;9.10;;
17528;SDS011;8882;53.192;8.184;2022-12-18T09:23:49;17.67;;;10.47;;
17528;SDS011;8882;53.192;8.184;2022-12-18T09:26:15;16.37;;;9.37;;
17528;SDS011;8882;53.192;8.184;2022-12-18T09:28:41;11.20;;;7.10;;
17528;SDS011;8882;53.192;8.184;2022-12-18T09:31:08;12.77;;;7.33;;
17528;SDS011;8882;53.192;8.184;2022-12-18T09:33:34;10.63;;;7.10;;
17528;SDS011;8882;53.192;8.184;2022-12-18T09:36:01;13.97;;;8.00;;
17528;SDS011;8882;53.192;8.184;2022-12-18T09:38:28;14.40;;;9.03;;
17528;SDS011;8882;53.192;8.184;2022-12-18T09:40:56;12.13;;;7.70;;
17528;SDS011;8882;53.192;8.184;2022-12-18T09:43:30;15.13;;;7.83;;
17528;SDS011;8882;53.192;8.184;2022-12-18T09:46:10;12.03;;;7.60;;
17528;SDS011;8882;53.192;8.184;2022-12-18T09:48:42;11.83;;;7.53;;
17528;SDS011;8882;53.192;8.184;2022-12-18T09:51:14;12.43;;;6.40;;
17528;SDS011;8882;53.192;8.184;2022-12-18T09:53:44;14.57;;;8.10;;
17528;SDS011;8882;53.192;8.184;2022-12-18T09:56:19;13.60;;;8.80;;
17528;SDS011;8882;53.192;8.184;2022-12-18T09:59:14;13.10;;;7.07;;
17528;SDS011;8882;53.192;8.184;2022-12-18T10:01:42;14.37;;;7.27;;
17528;SDS011;8882;53.192;8.184;2022-12-18T10:04:08;13.70;;;8.40;;
17528;SDS011;8882;53.192;8.184;2022-12-18T10:06:39;20.17;;;9.13;;
17528;SDS011;8882;53.192;8.184;2022-12-18T10:09:12;25.20;;;12.80;;
17528;SDS011;8882;53.192;8.184;2022-12-18T10:19:55;17.50;;;8.87;;
17528;SDS011;8882;53.192;8.184;2022-12-18T10:22:31;22.40;;;9.30;;
17528;SDS011;8882;53.192;8.184;2022-12-18T10:28:24;13.23;;;7.13;;
17528;SDS011;8882;53.192;8.184;2022-12-18T10:30:51;14.20;;;7.80;;
17528;SDS011;8882;53.192;8.184;2022-12-18T10:33:18;9.10;;;6.43;;
17528;SDS011;8882;53.192;8.184;2022-12-18T10:35:46;12.23;;;6.93;;
17528;SDS011;8882;53.192;8.184;2022-12-18T10:43:15;13.53;;;6.93;;
17528;SDS011;8882;53.192;8.184;2022-12-18T10:45:57;12.17;;;7.10;;
17528;SDS011;8882;53.192;8.184;2022-12-18T10:48:33;17.93;;;8.73;;
17528;SDS011;8882;53.192;8.184;2022-12-18T10:50:59;14.70;;;8.57;;
17528;SDS011;8882;53.192;8.184;2022-12-18T10:53:26;17.77;;;9.07;;
17528;SDS011;8882;53.192;8.184;2022-12-18T10:55:54;14.07;;;8.37;;
17528;SDS011;8882;53.192;8.184;2022-12-18T10:58:29;14.30;;;8.00;;
17528;SDS011;8882;53.192;8.184;2022-12-18T11:03:34;12.97;;;6.70;;
17528;SDS011;8882;53.192;8.184;2022-12-18T11:06:09;10.30;;;7.27;;
17528;SDS011;8882;53.192;8.184;2022-12-18T11:08:35;10.27;;;6.17;;
17528;SDS011;8882;53.192;8.184;2022-12-18T11:11:01;12.13;;;6.73;;
17528;SDS011;8882;53.192;8.184;2022-12-18T11:13:28;10.57;;;6.27;;
17528;SDS011;8882;53.192;8.184;2022-12-18T11:15:56;13.10;;;7.93;;
17528;SDS011;8882;53.192;8.184;2022-12-18T11:20:54;12.37;;;7.23;;
17528;SDS011;8882;53.192;8.184;2022-12-18T11:23:22;12.83;;;7.03;;
17528;SDS011;8882;53.192;8.184;2022-12-18T11:25:59;15.50;;;7.73;;
17528;SDS011;8882;53.192;8.184;2022-12-18T11:28:34;12.97;;;7.27;;
17528;SDS011;8882;53.192;8.184;2022-12-18T11:31:27;12.93;;;8.17;;
17528;SDS011;8882;53.192;8.184;2022-12-18T11:33:55;12.20;;;7.13;;
17528;SDS011;8882;53.192;8.184;2022-12-18T11:36:39;12.83;;;6.10;;
17528;SDS011;8882;53.192;8.184;2022-12-18T11:39:18;10.67;;;7.03;;
17528;SDS011;8882;53.192;8.184;2022-12-18T11:42:09;12.47;;;7.03;;
17528;SDS011;8882;53.192;8.184;2022-12-18T11:44:51;10.20;;;5.97;;
17528;SDS011;8882;53.192;8.184;2022-12-18T11:50:21;12.20;;;6.67;;
17528;SDS011;8882;53.192;8.184;2022-12-18T11:52:49;9.43;;;5.83;;
17528;SDS011;8882;53.192;8.184;2022-12-18T11:55:16;11.50;;;6.03;;
17528;SDS011;8882;53.192;8.184;2022-12-18T12:00:45;12.20;;;6.63;;
17528;SDS011;8882;53.192;8.184;2022-12-18T12:03:22;8.33;;;5.53;;
17528;SDS011;8882;53.192;8.184;2022-12-18T12:08:58;10.30;;;5.63;;
17528;SDS011;8882;53.192;8.184;2022-12-18T12:14:47;8.90;;;5.10;;
17528;SDS011;8882;53.192;8.184;2022-12-18T12:17:42;11.30;;;6.03;;
17528;SDS011;8882;53.192;8.184;2022-12-18T12:20:19;10.77;;;6.73;;
17528;SDS011;8882;53.192;8.184;2022-12-18T12:25:51;11.73;;;6.37;;
17528;SDS011;8882;53.192;8.184;2022-12-18T12:28:49;10.10;;;5.70;;
17528;SDS011;8882;53.192;8.184;2022-12-18T12:37:06;9.53;;;5.50;;
17528;SDS011;8882;53.192;8.184;2022-12-18T12:39:45;14.03;;;6.50;;
17528;SDS011;8882;53.192;8.184;2022-12-18T12:42:17;14.60;;;6.80;;
17528;SDS011;8882;53.192;8.184;2022-12-18T12:45:13;14.03;;;6.97;;
17528;SDS011;8882;53.192;8.184;2022-12-18T12:47:43;11.23;;;6.40;;
17528;SDS011;8882;53.192;8.184;2022-12-18T12:50:15;11.00;;;6.40;;
17528;SDS011;8882;53.192;8.184;2022-12-18T12:52:45;10.37;;;6.03;;
17528;SDS011;8882;53.192;8.184;2022-12-18T12:55:15;15.17;;;7.10;;
17528;SDS011;8882;53.192;8.184;2022-12-18T12:58:03;13.30;;;6.47;;
17528;SDS011;8882;53.192;8.184;2022-12-18T13:00:39;7.73;;;5.40;;
17528;SDS011;8882;53.192;8.184;2022-12-18T13:03:29;10.93;;;6.13;;
17528;SDS011;8882;53.192;8.184;2022-12-18T13:06:12;9.40;;;6.10;;
17528;SDS011;8882;53.192;8.184;2022-12-18T13:09:00;11.00;;;6.40;;
17528;SDS011;8882;53.192;8.184;2022-12-18T13:11:30;10.17;;;5.80;;
17528;SDS011;8882;53.192;8.184;2022-12-18T13:14:28;10.57;;;6.23;;
17528;SDS011;8882;53.192;8.184;2022-12-18T13:17:14;8.83;;;6.30;;
17528;SDS011;8882;53.192;8.184;2022-12-18T13:19:49;7.13;;;5.30;;
17528;SDS011;8882;53.192;8.184;2022-12-18T13:22:23;7.10;;;4.97;;
17528;SDS011;8882;53.192;8.184;2022-12-18T13:24:50;9.93;;;6.10;;
17528;SDS011;8882;53.192;8.184;2022-12-18T13:33:57;13.73;;;6.63;;
17528;SDS011;8882;53.192;8.184;2022-12-18T13:36:01;8.47;;;5.90;;
17528;SDS011;8882;53.192;8.184;2022-12-18T13:38:47;9.23;;;6.00;;
17528;SDS011;8882;53.192;8.184;2022-12-18T13:41:42;9.60;;;5.33;;
17528;SDS011;8882;53.192;8.184;2022-12-18T13:44:13;8.87;;;6.30;;
17528;SDS011;8882;53.192;8.184;2022-12-18T13:46:56;9.10;;;5.67;;
17528;SDS011;8882;53.192;8.184;2022-12-18T13:49:26;11.80;;;5.50;;
17528;SDS011;8882;53.192;8.184;2022-12-18T13:51:56;8.40;;;5.60;;
17528;SDS011;8882;53.192;8.184;2022-12-18T13:54:30;11.47;;;5.33;;
17528;SDS011;8882;53.192;8.184;2022-12-18T13:57:04;10.53;;;6.00;;
17528;SDS011;8882;53.192;8.184;2022-12-18T13:59:49;10.33;;;6.40;;
17528;SDS011;8882;53.192;8.184;2022-12-18T14:02:16;7.70;;;5.67;;
17528;SDS011;8882;53.192;8.184;2022-12-18T14:04:46;7.13;;;5.87;;
17528;SDS011;8882;53.192;8.184;2022-12-18T14:09:49;10.67;;;5.47;;
17528;SDS011;8882;53.192;8.184;2022-12-18T14:12:35;15.90;;;7.00;;
17528;SDS011;8882;53.192;8.184;2022-12-18T14:17:49;13.30;;;7.00;;
17528;SDS011;8882;53.192;8.184;2022-12-18T14:20:24;11.47;;;7.07;;
17528;SDS011;8882;53.192;8.184;2022-12-18T14:22:51;9.30;;;6.07;;
17528;SDS011;8882;53.192;8.184;2022-12-18T14:25:18;9.60;;;6.00;;
17528;SDS011;8882;53.192;8.184;2022-12-18T14:27:47;7.77;;;5.70;;
17528;SDS011;8882;53.192;8.184;2022-12-18T14:30:32;8.87;;;6.20;;
17528;SDS011;8882;53.192;8.184;2022-12-18T14:33:02;7.17;;;4.83;;
17528;SDS011;8882;53.192;8.184;2022-12-18T14:35:29;10.63;;;5.20;;
17528;SDS011;8882;53.192;8.184;2022-12-18T14:38:09;8.93;;;5.10;;
17528;SDS011;8882;53.192;8.184;2022-12-18T14:40:36;7.20;;;5.63;;
17528;SDS011;8882;53.192;8.184;2022-12-18T14:43:02;9.33;;;5.60;;
17528;SDS011;8882;53.192;8.184;2022-12-18T14:48:06;10.47;;;6.20;;
17528;SDS011;8882;53.192;8.184;2022-12-18T14:50:44;10.60;;;5.63;;
17528;SDS011;8882;53.192;8.184;2022-12-18T14:53:18;13.53;;;6.17;;
17528;SDS011;8882;53.192;8.184;2022-12-18T14:55:47;10.40;;;6.50;;
17528;SDS011;8882;53.192;8.184;2022-12-18T14:58:14;7.70;;;5.53;;
17528;SDS011;8882;53.192;8.184;2022-12-18T15:00:42;10.40;;;5.90;;
17528;SDS011;8882;53.192;8.184;2022-12-18T15:03:08;17.73;;;6.73;;
17528;SDS011;8882;53.192;8.184;2022-12-18T15:05:35;10.80;;;6.83;;
17528;SDS011;8882;53.192;8.184;2022-12-18T15:08:00;10.07;;;6.40;;
17528;SDS011;8882;53.192;8.184;2022-12-18T15:10:28;10.80;;;6.57;;
17528;SDS011;8882;53.192;8.184;2022-12-18T15:17:59;8.87;;;5.77;;
17528;SDS011;8882;53.192;8.184;2022-12-18T15:20:25;10.33;;;5.83;;
17528;SDS011;8882;53.192;8.184;2022-12-18T15:22:51;35.80;;;18.98;;
17528;SDS011;8882;53.192;8.184;2022-12-18T15:25:35;10.50;;;7.27;;
17528;SDS011;8882;53.192;8.184;2022-12-18T15:28:03;9.03;;;6.20;;
17528;SDS011;8882;53.192;8.184;2022-12-18T15:30:40;6.80;;;4.60;;
17528;SDS011;8882;53.192;8.184;2022-12-18T15:33:24;10.67;;;5.57;;
17528;SDS011;8882;53.192;8.184;2022-12-18T15:36:01;7.20;;;5.60;;
17528;SDS011;8882;53.192;8.184;2022-12-18T15:38:29;13.23;;;6.00;;
17528;SDS011;8882;53.192;8.184;2022-12-18T15:40:55;10.03;;;5.10;;
17528;SDS011;8882;53.192;8.184;2022-12-18T15:43:22;7.63;;;5.33;;
17528;SDS011;8882;53.192;8.184;2022-12-18T15:46:01;8.67;;;5.67;;
17528;SDS011;8882;53.192;8.184;2022-12-18T15:48:27;6.00;;;5.10;;
17528;SDS011;8882;53.192;8.184;2022-12-18T15:50:53;9.70;;;5.43;;
17528;SDS011;8882;53.192;8.184;2022-12-18T15:53:21;9.37;;;5.07;;
17528;SDS011;8882;53.192;8.184;2022-12-18T15:55:48;9.53;;;5.37;;
17528;SDS011;8882;53.192;8.184;2022-12-18T15:58:32;10.07;;;5.73;;
17528;SDS011;8882;53.192;8.184;2022-12-18T16:00:58;11.03;;;5.57;;
17528;SDS011;8882;53.192;8.184;2022-12-18T16:03:25;11.90;;;5.87;;
17528;SDS011;8882;53.192;8.184;2022-12-18T16:05:50;10.10;;;5.50;;
17528;SDS011;8882;53.192;8.184;2022-12-18T16:08:16;10.07;;;6.13;;
17528;SDS011;8882;53.192;8.184;2022-12-18T16:10:41;9.17;;;5.93;;
17528;SDS011;8882;53.192;8.184;2022-12-18T16:13:10;9.80;;;5.50;;
17528;SDS011;8882;53.192;8.184;2022-12-18T16:15:37;10.40;;;6.07;;
17528;SDS011;8882;53.192;8.184;2022-12-18T16:18:02;9.30;;;5.23;;
17528;SDS011;8882;53.192;8.184;2022-12-18T16:20:28;8.70;;;5.90;;
17528;SDS011;8882;53.192;8.184;2022-12-18T16:22:54;8.97;;;5.93;;
17528;SDS011;8882;53.192;8.184;2022-12-18T16:25:20;11.03;;;5.20;;
17528;SDS011;8882;53.192;8.184;2022-12-18T16:27:47;10.27;;;5.43;;
17528;SDS011;8882;53.192;8.184;2022-12-18T16:30:17;8.17;;;5.13;;
17528;SDS011;8882;53.192;8.184;2022-12-18T16:32:45;7.20;;;5.10;;
17528;SDS011;8882;53.192;8.184;2022-12-18T16:35:11;10.63;;;5.73;;
17528;SDS011;8882;53.192;8.184;2022-12-18T16:37:38;9.30;;;5.13;;
17528;SDS011;8882;53.192;8.184;2022-12-18T16:40:05;7.13;;;5.30;;
17528;SDS011;8882;53.192;8.184;2022-12-18T16:42:36;4.90;;;4.20;;
17528;SDS011;8882;53.192;8.184;2022-12-18T16:45:03;8.07;;;4.80;;
17528;SDS011;8882;53.192;8.184;2022-12-18T16:47:29;8.10;;;5.10;;
17528;SDS011;8882;53.192;8.184;2022-12-18T16:49:54;9.77;;;4.40;;
17528;SDS011;8882;53.192;8.184;2022-12-18T16:52:20;7.13;;;4.60;;
17528;SDS011;8882;53.192;8.184;2022-12-18T16:54:46;8.67;;;4.80;;
17528;SDS011;8882;53.192;8.184;2022-12-18T16:57:12;8.33;;;5.40;;
17528;SDS011;8882;53.192;8.184;2022-12-18T16:59:39;9.97;;;5.27;;
17528;SDS011;8882;53.192;8.184;2022-12-18T17:02:05;7.60;;;4.67;;
17528;SDS011;8882;53.192;8.184;2022-12-18T17:04:36;9.00;;;5.27;;
17528;SDS011;8882;53.192;8.184;2022-12-18T17:07:02;8.10;;;5.37;;
17528;SDS011;8882;53.192;8.184;2022-12-18T17:09:28;12.57;;;5.47;;
17528;SDS011;8882;53.192;8.184;2022-12-18T17:11:54;9.33;;;6.03;;
17528;SDS011;8882;53.192;8.184;2022-12-18T17:14:20;7.17;;;5.50;;
17528;SDS011;8882;53.192;8.184;2022-12-18T17:16:47;7.93;;;4.97;;
17528;SDS011;8882;53.192;8.184;2022-12-18T17:19:13;9.60;;;5.97;;
17528;SDS011;8882;53.192;8.184;2022-12-18T17:21:40;7.60;;;5.00;;
17528;SDS011;8882;53.192;8.184;2022-12-18T17:24:07;8.57;;;4.93;;
17528;SDS011;8882;53.192;8.184;2022-12-18T17:26:32;7.13;;;4.63;;
17528;SDS011;8882;53.192;8.184;2022-12-18T17:28:58;7.43;;;4.70;;
17528;SDS011;8882;53.192;8.184;2022-12-18T17:31:25;8.57;;;5.33;;
17528;SDS011;8882;53.192;8.184;2022-12-18T17:33:52;7.57;;;5.17;;
17528;SDS011;8882;53.192;8.184;2022-12-18T17:36:17;8.07;;;5.23;;
17528;SDS011;8882;53.192;8.184;2022-12-18T17:38:49;7.43;;;5.07;;
17528;SDS011;8882;53.192;8.184;2022-12-18T17:41:16;8.50;;;5.63;;
17528;SDS011;8882;53.192;8.184;2022-12-18T17:43:42;6.77;;;4.73;;
17528;SDS011;8882;53.192;8.184;2022-12-18T17:46:10;12.20;;;5.33;;
17528;SDS011;8882;53.192;8.184;2022-12-18T17:48:37;10.80;;;5.50;;
17528;SDS011;8882;53.192;8.184;2022-12-18T17:51:03;16.80;;;7.33;;
17528;SDS011;8882;53.192;8.184;2022-12-18T17:53:30;8.80;;;5.20;;
17528;SDS011;8882;53.192;8.184;2022-12-18T17:55:56;7.93;;;4.93;;
17528;SDS011;8882;53.192;8.184;2022-12-18T17:58:25;10.33;;;5.13;;
17528;SDS011;8882;53.192;8.184;2022-12-18T18:00:51;10.67;;;5.57;;
17528;SDS011;8882;53.192;8.184;2022-12-18T18:03:16;8.13;;;5.13;;
17528;SDS011;8882;53.192;8.184;2022-12-18T18:05:42;10.13;;;5.40;;
17528;SDS011;8882;53.192;8.184;2022-12-18T18:08:08;8.23;;;5.13;;
17528;SDS011;8882;53.192;8.184;2022-12-18T18:10:36;9.40;;;5.63;;
17528;SDS011;8882;53.192;8.184;2022-12-18T18:13:03;6.90;;;4.80;;
17528;SDS011;8882;53.192;8.184;2022-12-18T18:15:57;8.37;;;5.70;;
17528;SDS011;8882;53.192;8.184;2022-12-18T18:18:23;9.63;;;5.67;;
17528;SDS011;8882;53.192;8.184;2022-12-18T18:20:49;10.53;;;5.37;;
17528;SDS011;8882;53.192;8.184;2022-12-18T18:23:15;8.93;;;4.90;;
17528;SDS011;8882;53.192;8.184;2022-12-18T18:25:40;5.43;;;4.10;;
17528;SDS011;8882;53.192;8.184;2022-12-18T18:28:06;7.53;;;4.70;;
17528;SDS011;8882;53.192;8.184;2022-12-18T18:30:31;7.73;;;4.57;;
17528;SDS011;8882;53.192;8.184;2022-12-18T18:32:57;9.93;;;5.70;;
17528;SDS011;8882;53.192;8.184;2022-12-18T18:35:22;7.63;;;5.47;;
17528;SDS011;8882;53.192;8.184;2022-12-18T18:37:48;9.80;;;5.47;;
17528;SDS011;8882;53.192;8.184;2022-12-18T18:40:16;10.40;;;5.57;;
17528;SDS011;8882;53.192;8.184;2022-12-18T18:42:41;8.07;;;5.13;;
17528;SDS011;8882;53.192;8.184;2022-12-18T18:45:07;8.50;;;5.27;;
17528;SDS011;8882;53.192;8.184;2022-12-18T18:47:33;10.23;;;5.07;;
17528;SDS011;8882;53.192;8.184;2022-12-18T18:49:58;7.37;;;4.83;;
17528;SDS011;8882;53.192;8.184;2022-12-18T18:52:24;6.57;;;4.77;;
17528;SDS011;8882;53.192;8.184;2022-12-18T18:54:49;8.00;;;5.40;;
17528;SDS011;8882;53.192;8.184;2022-12-18T18:57:15;8.33;;;5.03;;
17528;SDS011;8882;53.192;8.184;2022-12-18T18:59:41;7.53;;;4.43;;
17528;SDS011;8882;53.192;8.184;2022-12-18T19:02:10;10.30;;;5.50;;
17528;SDS011;8882;53.192;8.184;2022-12-18T19:04:38;9.20;;;5.23;;
17528;SDS011;8882;53.192;8.184;2022-12-18T19:07:04;7.17;;;5.07;;
17528;SDS011;8882;53.192;8.184;2022-12-18T19:09:30;11.80;;;5.43;;
17528;SDS011;8882;53.192;8.184;2022-12-18T19:11:56;6.03;;;4.57;;
17528;SDS011;8882;53.192;8.184;2022-12-18T19:14:41;8.50;;;5.17;;
17528;SDS011;8882;53.192;8.184;2022-12-18T19:17:07;10.50;;;4.50;;
17528;SDS011;8882;53.192;8.184;2022-12-18T19:19:33;10.97;;;6.00;;
17528;SDS011;8882;53.192;8.184;2022-12-18T19:21:58;8.57;;;4.90;;
17528;SDS011;8882;53.192;8.184;2022-12-18T19:24:24;6.63;;;4.67;;
17528;SDS011;8882;53.192;8.184;2022-12-18T19:26:49;8.67;;;5.50;;
17528;SDS011;8882;53.192;8.184;2022-12-18T19:29:16;9.03;;;4.70;;
17528;SDS011;8882;53.192;8.184;2022-12-18T19:31:41;7.73;;;4.97;;
17528;SDS011;8882;53.192;8.184;2022-12-18T19:34:07;6.77;;;4.73;;
17528;SDS011;8882;53.192;8.184;2022-12-18T19:36:34;8.20;;;4.37;;
17528;SDS011;8882;53.192;8.184;2022-12-18T19:39:01;9.93;;;5.20;;
17528;SDS011;8882;53.192;8.184;2022-12-18T19:41:31;10.50;;;4.67;;
17528;SDS011;8882;53.192;8.184;2022-12-18T19:43:57;6.67;;;4.50;;
17528;SDS011;8882;53.192;8.184;2022-12-18T19:46:22;9.00;;;4.73;;
17528;SDS011;8882;53.192;8.184;2022-12-18T19:48:48;9.73;;;4.73;;
17528;SDS011;8882;53.192;8.184;2022-12-18T19:51:15;8.03;;;4.87;;
17528;SDS011;8882;53.192;8.184;2022-12-18T19:53:43;10.53;;;5.00;;
17528;SDS011;8882;53.192;8.184;2022-12-18T19:56:11;7.30;;;4.63;;
17528;SDS011;8882;53.192;8.184;2022-12-18T19:58:38;8.07;;;5.27;;
17528;SDS011;8882;53.192;8.184;2022-12-18T20:01:05;8.53;;;4.47;;
17528;SDS011;8882;53.192;8.184;2022-12-18T20:03:30;9.53;;;5.00;;
17528;SDS011;8882;53.192;8.184;2022-12-18T20:06:19;7.33;;;4.70;;
17528;SDS011;8882;53.192;8.184;2022-12-18T20:08:43;6.03;;;4.47;;
17528;SDS011;8882;53.192;8.184;2022-12-18T20:11:10;6.83;;;4.03;;
17528;SDS011;8882;53.192;8.184;2022-12-18T20:13:35;7.07;;;4.57;;
17528;SDS011;8882;53.192;8.184;2022-12-18T20:16:01;6.80;;;4.73;;
17528;SDS011;8882;53.192;8.184;2022-12-18T20:18:27;8.80;;;5.10;;
17528;SDS011;8882;53.192;8.184;2022-12-18T20:20:52;9.07;;;4.80;;
17528;SDS011;8882;53.192;8.184;2022-12-18T20:23:18;5.80;;;3.87;;
17528;SDS011;8882;53.192;8.184;2022-12-18T20:25:45;8.60;;;4.70;;
17528;SDS011;8882;53.192;8.184;2022-12-18T20:28:11;7.00;;;3.63;;
17528;SDS011;8882;53.192;8.184;2022-12-18T20:30:36;6.77;;;4.03;;
17528;SDS011;8882;53.192;8.184;2022-12-18T20:33:02;5.97;;;4.40;;
17528;SDS011;8882;53.192;8.184;2022-12-18T20:35:27;9.13;;;4.70;;
17528;SDS011;8882;53.192;8.184;2022-12-18T20:37:55;5.23;;;3.93;;
17528;SDS011;8882;53.192;8.184;2022-12-18T20:40:21;7.03;;;3.93;;
17528;SDS011;8882;53.192;8.184;2022-12-18T20:42:47;8.07;;;4.87;;
17528;SDS011;8882;53.192;8.184;2022-12-18T20:45:12;8.67;;;4.37;;
17528;SDS011;8882;53.192;8.184;2022-12-18T20:47:38;8.57;;;4.63;;
17528;SDS011;8882;53.192;8.184;2022-12-18T20:50:03;6.80;;;4.53;;
17528;SDS011;8882;53.192;8.184;2022-12-18T20:52:30;6.03;;;4.77;;
17528;SDS011;8882;53.192;8.184;2022-12-18T20:54:55;6.87;;;4.07;;
17528;SDS011;8882;53.192;8.184;2022-12-18T20:57:21;8.10;;;4.23;;
17528;SDS011;8882;53.192;8.184;2022-12-18T20:59:46;8.77;;;4.77;;
17528;SDS011;8882;53.192;8.184;2022-12-18T21:02:12;8.83;;;4.60;;
17528;SDS011;8882;53.192;8.184;2022-12-18T21:04:38;8.83;;;4.43;;
17528;SDS011;8882;53.192;8.184;2022-12-18T21:07:03;9.73;;;4.50;;
17528;SDS011;8882;53.192;8.184;2022-12-18T21:09:29;7.30;;;4.80;;
17528;SDS011;8882;53.192;8.184;2022-12-18T21:11:56;6.17;;;4.33;;
17528;SDS011;8882;53.192;8.184;2022-12-18T21:14:40;6.97;;;4.33;;
17528;SDS011;8882;53.192;8.184;2022-12-18T21:17:06;6.63;;;4.87;;
17528;SDS011;8882;53.192;8.184;2022-12-18T21:19:32;12.37;;;4.87;;
17528;SDS011;8882;53.192;8.184;2022-12-18T21:21:57;6.57;;;4.60;;
17528;SDS011;8882;53.192;8.184;2022-12-18T21:24:23;6.23;;;4.73;;
17528;SDS011;8882;53.192;8.184;2022-12-18T21:26:49;8.17;;;5.30;;
17528;SDS011;8882;53.192;8.184;2022-12-18T21:29:19;11.17;;;6.07;;
17528;SDS011;8882;53.192;8.184;2022-12-18T21:31:49;7.77;;;5.50;;
17528;SDS011;8882;53.192;8.184;2022-12-18T21:34:19;6.93;;;4.93;;
17528;SDS011;8882;53.192;8.184;2022-12-18T21:36:47;9.43;;;5.23;;
17528;SDS011;8882;53.192;8.184;2022-12-18T21:39:13;9.83;;;6.40;;
17528;SDS011;8882;53.192;8.184;2022-12-18T21:41:40;9.67;;;4.77;;
17528;SDS011;8882;53.192;8.184;2022-12-18T21:44:24;9.17;;;4.73;;
17528;SDS011;8882;53.192;8.184;2022-12-18T21:46:50;10.07;;;4.87;;
17528;SDS011;8882;53.192;8.184;2022-12-18T21:49:16;8.33;;;4.77;;
17528;SDS011;8882;53.192;8.184;2022-12-18T21:51:45;11.13;;;5.83;;
17528;SDS011;8882;53.192;8.184;2022-12-18T21:54:11;7.03;;;3.87;;
17528;SDS011;8882;53.192;8.184;2022-12-18T21:56:43;8.13;;;5.07;;
